Time;durP1;ratioP1;P1;durP2;ratioP2;P2;SDS_P1;SDS_P2;PMS_P1;PMS_P2;Temp;Humidity;BMP_temperature;BMP_pressure;BME280_temperature;BME280_humidity;BME280_pressure;Samples;Min_cycle;Max_cycle;Signal;HPM_P1;HPM_P2
2024/01/13 00:04:45;;;;;;;29.40;11.60;;;;;;;-0.15;100.00;100968.49;217984;1288;140684;-95
2024/01/13 00:09:45;;;;;;;25.10;11.40;;;;;;;-0.15;100.00;100959.85;218610;1289;139585;-96
2024/01/13 00:14:46;;;;;;;26.30;11.80;;;;;;;-0.16;100.00;100955.05;218299;1289;140291;-96
2024/01/13 00:19:46;;;;;;;25.00;11.00;;;;;;;-0.14;100.00;100953.77;218433;1288;140173;-94
2024/01/13 00:24:47;;;;;;;27.00;11.80;;;;;;;-0.13;100.00;100948.67;218161;1287;140721;-95
2024/01/13 00:29:47;;;;;;;24.80;11.10;;;;;;;-0.14;100.00;100947.76;218243;1290;140412;-96
2024/01/13 00:34:48;;;;;;;22.10;10.40;;;;;;;-0.14;100.00;100950.67;218269;1289;140289;-95
2024/01/13 00:39:48;;;;;;;29.90;12.70;;;;;;;-0.14;100.00;100943.11;218238;1288;140322;-94
2024/01/13 00:44:48;;;;;;;24.70;11.30;;;;;;;-0.14;100.00;100940.73;218550;1286;140860;-93
2024/01/13 00:49:49;;;;;;;24.00;10.90;;;;;;;-0.14;100.00;100928.66;218364;1289;140392;-95
2024/01/13 00:54:49;;;;;;;28.20;12.00;;;;;;;-0.14;100.00;100924.65;218516;1286;140397;-96
2024/01/13 00:59:50;;;;;;;26.90;11.60;;;;;;;-0.11;100.00;100916.11;218585;1288;140433;-94
2024/01/13 01:04:51;;;;;;;30.20;12.60;;;;;;;-0.11;100.00;100908.52;218830;1286;140453;-93
2024/01/13 01:09:51;;;;;;;30.00;12.20;;;;;;;-0.09;100.00;100908.95;218340;1287;139708;-94
2024/01/13 01:14:51;;;;;;;28.00;11.90;;;;;;;-0.10;100.00;100914.80;218444;1288;140157;-95
2024/01/13 01:19:52;;;;;;;28.20;11.20;;;;;;;-0.10;100.00;100908.97;218037;1288;140264;-94
2024/01/13 01:24:52;;;;;;;28.00;12.30;;;;;;;-0.09;100.00;100902.17;218493;1288;139574;-94
2024/01/13 01:29:52;;;;;;;30.60;12.30;;;;;;;-0.09;100.00;100898.44;218229;1289;141994;-94
2024/01/13 01:34:53;;;;;;;28.40;12.00;;;;;;;-0.09;100.00;100895.67;218476;1288;139777;-94
2024/01/13 01:39:53;;;;;;;28.50;12.20;;;;;;;-0.08;100.00;100896.86;217926;1287;140655;-94
2024/01/13 01:44:54;;;;;;;26.20;13.30;;;;;;;-0.07;100.00;100902.01;218565;1287;96465;-94
2024/01/13 01:49:54;;;;;;;36.10;14.40;;;;;;;-0.07;100.00;100896.90;217996;1288;141575;-94
2024/01/13 01:54:55;;;;;;;37.00;15.40;;;;;;;-0.06;100.00;100886.23;218522;1290;140778;-94
2024/01/13 01:59:55;;;;;;;30.90;13.70;;;;;;;-0.06;100.00;100881.45;218058;1286;140918;-95
2024/01/13 02:04:56;;;;;;;25.60;13.00;;;;;;;-0.05;100.00;100880.31;218374;1289;140073;-93
2024/01/13 02:09:56;;;;;;;28.30;12.30;;;;;;;-0.04;100.00;100872.23;218048;1287;140779;-94
2024/01/13 02:14:57;;;;;;;38.80;14.90;;;;;;;-0.03;100.00;100867.44;218649;1286;110321;-95
2024/01/13 02:20:00;;;;;;;32.10;13.70;;;;;;;-0.01;100.00;100870.44;218181;1287;141118;-94
2024/01/13 02:25:03;;;;;;;36.50;15.20;;;;;;;-0.01;100.00;100866.08;218470;1288;139778;-94
2024/01/13 02:30:04;;;;;;;33.60;13.30;;;;;;;-0.02;100.00;100861.27;218036;1287;140529;-95
2024/01/13 02:35:05;;;;;;;31.00;14.40;;;;;;;-0.03;100.00;100858.14;218641;1287;140342;-93
2024/01/13 02:40:09;;;;;;;33.80;14.20;;;;;;;-0.03;100.00;100849.32;218190;1286;141060;-94
2024/01/13 02:45:09;;;;;;;37.40;15.20;;;;;;;-0.02;100.00;100845.05;218805;1286;96479;-95
2024/01/13 02:50:11;;;;;;;35.90;14.40;;;;;;;-0.02;100.00;100837.13;218039;1286;140143;-95
2024/01/13 02:55:11;;;;;;;41.30;16.60;;;;;;;-0.00;100.00;100830.19;218671;1287;139670;-95
2024/01/13 03:00:13;;;;;;;40.90;17.00;;;;;;;0.01;100.00;100816.29;218238;1287;140724;-94
2024/01/13 03:05:13;;;;;;;44.60;18.50;;;;;;;0.03;100.00;100817.17;218506;1286;139773;-95
2024/01/13 03:10:14;;;;;;;45.30;17.90;;;;;;;0.03;100.00;100816.16;218181;1286;140492;-94
2024/01/13 03:15:14;;;;;;;31.80;13.70;;;;;;;0.02;100.00;100821.36;218543;1287;140045;-95
2024/01/13 03:20:14;;;;;;;37.50;15.60;;;;;;;0.01;100.00;100820.08;218072;1287;140888;-94
2024/01/13 03:25:15;;;;;;;32.20;12.80;;;;;;;0.02;100.00;100820.21;218474;1288;139246;-95
2024/01/13 03:30:15;;;;;;;37.40;13.50;;;;;;;0.02;100.00;100826.77;218095;1287;140513;-94
2024/01/13 03:35:15;;;;;;;37.20;14.30;;;;;;;0.01;100.00;100821.06;218486;1287;139377;-95
2024/01/13 03:40:16;;;;;;;35.90;11.40;;;;;;;0.01;100.00;100812.79;218111;1287;140440;-93
2024/01/13 03:45:16;;;;;;;32.70;12.50;;;;;;;-0.01;100.00;100820.55;218586;1286;140168;-93
2024/01/13 03:50:16;;;;;;;26.50;10.30;;;;;;;-0.01;100.00;100821.58;218216;1286;163336;-93
2024/01/13 03:55:17;;;;;;;29.00;12.30;;;;;;;0.00;100.00;100808.48;218661;1287;140141;-95
2024/01/13 04:00:18;;;;;;;25.30;10.20;;;;;;;0.00;100.00;100793.48;217895;1286;140401;-93
2024/01/13 04:05:18;;;;;;;31.50;11.30;;;;;;;-0.01;100.00;100781.05;218455;1291;139326;-95
2024/01/13 04:10:19;;;;;;;30.20;10.80;;;;;;;-0.01;100.00;100773.55;217944;1286;140826;-93
2024/01/13 04:15:19;;;;;;;28.10;10.80;;;;;;;-0.01;100.00;100764.23;218875;1286;139776;-93
2024/01/13 04:20:20;;;;;;;30.20;13.00;;;;;;;-0.01;100.00;100749.73;218068;1287;140785;-94
2024/01/13 04:25:21;;;;;;;36.40;15.20;;;;;;;-0.01;100.00;100740.48;218454;1291;138402;-93
2024/01/13 04:30:21;;;;;;;30.70;12.70;;;;;;;0.00;100.00;100729.96;217985;1287;140439;-94
2024/01/13 04:35:21;;;;;;;32.90;12.80;;;;;;;-0.00;100.00;100731.27;218649;1286;141104;-94
2024/01/13 04:40:22;;;;;;;29.90;13.00;;;;;;;0.00;100.00;100742.17;217924;1287;140612;-94
2024/01/13 04:45:22;;;;;;;31.20;13.60;;;;;;;0.02;100.00;100743.50;218439;1290;139582;-93
2024/01/13 04:50:23;;;;;;;33.70;13.30;;;;;;;0.02;100.00;100736.84;218092;1287;140313;-94
2024/01/13 04:55:23;;;;;;;26.20;13.10;;;;;;;0.03;100.00;100720.91;218573;1287;139251;-94
2024/01/13 05:00:24;;;;;;;33.50;13.00;;;;;;;0.03;100.00;100725.46;218008;1287;140255;-94
2024/01/13 05:05:24;;;;;;;32.20;13.30;;;;;;;0.01;100.00;100717.73;218557;1288;139604;-95
2024/01/13 05:10:25;;;;;;;26.00;12.60;;;;;;;0.02;100.00;100704.91;218113;1288;207391;-94
2024/01/13 05:15:26;;;;;;;32.20;12.10;;;;;;;0.04;100.00;100701.25;218582;1286;139407;-94
2024/01/13 05:20:26;;;;;;;31.70;12.90;;;;;;;0.04;100.00;100693.02;218209;1287;140180;-94
2024/01/13 05:25:26;;;;;;;29.50;11.30;;;;;;;0.05;100.00;100693.50;218909;1287;139482;-94
2024/01/13 05:30:28;;;;;;;34.40;11.50;;;;;;;0.05;100.00;100698.31;217948;1287;140559;-95
2024/01/13 05:35:28;;;;;;;27.40;10.70;;;;;;;0.05;100.00;100702.16;218532;1286;139700;-94
2024/01/13 05:40:29;;;;;;;24.70;11.00;;;;;;;0.04;100.00;100701.10;217959;1287;140665;-94
2024/01/13 05:45:29;;;;;;;24.10;8.90;;;;;;;0.03;100.00;100712.20;218527;1287;139463;-95
2024/01/13 05:50:29;;;;;;;26.70;9.60;;;;;;;0.02;100.00;100719.38;218075;1287;141178;-95
2024/01/13 05:55:30;;;;;;;29.30;9.70;;;;;;;0.01;100.00;100727.00;218582;1287;139636;-93
2024/01/13 06:00:31;;;;;;;23.60;7.70;;;;;;;0.01;100.00;100729.13;218020;1287;140080;-92
2024/01/13 06:05:31;;;;;;;21.40;8.00;;;;;;;0.01;100.00;100724.97;218602;1286;139288;-94
2024/01/13 06:10:32;;;;;;;16.80;7.30;;;;;;;0.01;100.00;100712.30;218022;1287;140906;-95
2024/01/13 06:15:32;;;;;;;18.30;7.60;;;;;;;0.01;100.00;100712.45;218573;1287;139151;-94
2024/01/13 06:20:33;;;;;;;18.90;6.70;;;;;;;0.01;100.00;100713.13;218134;1287;140469;-93
2024/01/13 06:25:33;;;;;;;28.50;7.00;;;;;;;0.02;100.00;100702.16;218527;1286;140807;-95
2024/01/13 06:30:34;;;;;;;21.90;7.70;;;;;;;0.02;100.00;100699.52;218273;1287;140324;-95
2024/01/13 06:35:34;;;;;;;17.80;7.60;;;;;;;0.00;100.00;100691.32;218658;1287;139185;-93
2024/01/13 06:40:35;;;;;;;15.20;6.50;;;;;;;-0.02;100.00;100682.54;217983;1286;140049;-94
2024/01/13 06:45:35;;;;;;;14.50;7.00;;;;;;;-0.04;100.00;100671.72;218538;1287;139483;-94
2024/01/13 06:50:36;;;;;;;17.50;6.80;;;;;;;-0.06;100.00;100663.14;218009;1287;139692;-94
2024/01/13 06:55:39;;;;;;;16.10;6.50;;;;;;;-0.06;100.00;100672.50;218606;1287;139517;-95
2024/01/13 07:00:46;;;;;;;15.30;6.10;;;;;;;-0.05;100.00;100679.96;218004;1287;140371;-94
2024/01/13 07:05:47;;;;;;;14.60;6.30;;;;;;;-0.05;100.00;100676.55;218489;1287;139592;-95
2024/01/13 07:10:56;;;;;;;16.20;6.90;;;;;;;-0.05;100.00;100666.20;217968;1287;140475;-95
2024/01/13 07:15:57;;;;;;;18.10;7.60;;;;;;;-0.03;100.00;100653.34;218582;1286;140005;-94
2024/01/13 07:21:01;;;;;;;16.70;6.60;;;;;;;-0.03;100.00;100646.90;218133;1287;140127;-95
2024/01/13 07:26:05;;;;;;;17.90;6.50;;;;;;;-0.01;100.00;100650.22;218718;1286;139392;-95
2024/01/13 07:31:09;;;;;;;14.10;6.40;;;;;;;-0.02;100.00;100639.59;217908;1286;140125;-94
2024/01/13 07:36:10;;;;;;;17.40;6.70;;;;;;;-0.01;100.00;100620.45;218490;1287;140370;-95
2024/01/13 07:41:11;;;;;;;18.70;6.30;;;;;;;0.02;100.00;100613.52;218008;1288;140972;-95
2024/01/13 07:46:15;;;;;;;13.30;5.80;;;;;;;0.05;100.00;100599.13;218536;1286;139388;-94
2024/01/13 07:51:15;;;;;;;17.60;5.40;;;;;;;0.07;100.00;100594.85;217815;1287;140568;-95
2024/01/13 07:56:19;;;;;;;23.20;7.20;;;;;;;0.10;100.00;100587.86;218590;1287;96120;-95
2024/01/13 08:01:28;;;;;;;18.50;6.00;;;;;;;0.11;100.00;100574.55;217910;1288;140317;-95
2024/01/13 08:06:29;;;;;;;13.80;5.10;;;;;;;0.11;100.00;100567.83;218639;1288;140440;-93
2024/01/13 08:11:33;;;;;;;18.80;6.70;;;;;;;0.11;100.00;100551.08;218112;1287;141505;-94
2024/01/13 08:16:34;;;;;;;14.80;6.10;;;;;;;0.14;100.00;100561.05;218482;1287;139619;-95
2024/01/13 08:21:35;;;;;;;19.50;6.70;;;;;;;0.18;100.00;100560.63;218046;1287;140783;-95
2024/01/13 08:27:06;;;;;;;;;;;;;;;;;;;;;
2024/01/13 08:32:13;;;;;;;19.90;7.80;;;;;;;0.23;100.00;100548.00;218390;1287;139808;-96
2024/01/13 08:37:36;;;;;;;23.80;9.20;;;;;;;0.27;100.00;100544.73;219013;1287;138566;-96
2024/01/13 08:42:39;;;;;;;18.90;8.10;;;;;;;0.29;100.00;100540.92;218201;1288;139622;-95
2024/01/13 08:47:40;;;;;;;17.90;7.80;;;;;;;0.30;100.00;100536.63;219060;1288;138255;-94
2024/01/13 08:52:43;;;;;;;22.10;8.70;;;;;;;0.34;100.00;100529.17;218367;1288;140293;-96
2024/01/13 09:02:53;;;;;;;23.30;9.20;;;;;;;0.44;100.00;100516.39;217995;1287;140475;-90
2024/01/13 09:07:57;;;;;;;23.10;9.00;;;;;;;0.49;100.00;100515.34;218696;1287;139601;-90
2024/01/13 09:12:57;;;;;;;16.70;7.90;;;;;;;0.55;100.00;100507.65;218091;1287;140127;-90
2024/01/13 09:17:58;;;;;;;25.30;9.40;;;;;;;0.62;100.00;100501.89;218546;1288;139422;-89
2024/01/13 09:22:58;;;;;;;23.10;10.00;;;;;;;0.69;100.00;100496.67;217992;1287;140035;-91
2024/01/13 09:27:59;;;;;;;23.50;9.90;;;;;;;0.77;100.00;100484.39;218649;1287;138529;-91
2024/01/13 09:32:59;;;;;;;24.80;10.30;;;;;;;0.86;100.00;100461.61;218205;1287;140207;-92
2024/01/13 09:38:00;;;;;;;22.40;10.70;;;;;;;0.95;100.00;100447.89;218569;1287;139891;-91
2024/01/13 09:43:06;;;;;;;19.30;10.10;;;;;;;1.00;100.00;100440.17;218026;1287;140752;-90
2024/01/13 09:48:08;;;;;;;23.70;10.40;;;;;;;1.07;100.00;100434.19;218234;1287;316961;-91
2024/01/13 09:53:09;;;;;;;22.90;10.40;;;;;;;1.12;100.00;100426.90;218067;1287;141322;-92
2024/01/13 09:58:19;;;;;;;20.90;10.90;;;;;;;1.16;100.00;100420.16;218689;1287;139631;-90
2024/01/13 10:03:20;;;;;;;20.70;9.70;;;;;;;1.20;100.00;100417.55;217959;1287;140013;-90
2024/01/13 10:08:30;;;;;;;20.50;8.70;;;;;;;1.25;100.00;100410.64;218757;1287;96688;-91
2024/01/13 10:13:31;;;;;;;15.90;7.90;;;;;;;1.32;100.00;100397.58;218035;1287;139713;-92
2024/01/13 10:18:34;;;;;;;14.70;6.40;;;;;;;1.36;100.00;100391.01;218667;1287;139566;-91
2024/01/13 10:23:36;;;;;;;12.60;5.70;;;;;;;1.35;100.00;100383.77;217985;1287;140215;-91
2024/01/13 10:28:38;;;;;;;16.50;7.70;;;;;;;1.35;100.00;100375.70;218574;1287;139355;-92
2024/01/13 10:33:50;;;;;;;13.40;6.70;;;;;;;1.38;100.00;100354.02;217913;1287;140585;-92
2024/01/13 10:38:55;;;;;;;13.00;5.60;;;;;;;1.43;100.00;100341.45;218360;1288;95958;-92
2024/01/13 10:43:57;;;;;;;14.80;6.90;;;;;;;1.45;100.00;100345.06;218036;1287;140371;-93
2024/01/13 10:49:20;;;;;;;13.70;6.60;;;;;;;1.46;100.00;100348.44;218163;1288;139503;-92
2024/01/13 10:54:25;;;;;;;11.80;5.70;;;;;;;1.45;100.00;100331.19;217841;1289;140206;-92
2024/01/13 10:59:50;;;;;;;;;;;;;;;;;;;;;
2024/01/13 11:04:54;;;;;;;10.90;5.30;;;;;;;1.44;100.00;100316.96;217910;1287;140077;-92
2024/01/13 11:10:00;;;;;;;12.40;5.20;;;;;;;1.45;100.00;100308.15;218014;1287;140816;-88
2024/01/13 11:15:19;;;;;;;9.70;4.60;;;;;;;1.44;100.00;100288.30;218639;1287;107394;-93
2024/01/13 11:20:21;;;;;;;10.20;5.10;;;;;;;1.46;100.00;100271.11;217718;1288;140740;-92
2024/01/13 11:25:29;;;;;;;10.60;5.00;;;;;;;1.46;100.00;100265.46;218582;1287;139502;-94
2024/01/13 11:30:39;;;;;;;10.80;5.10;;;;;;;1.45;100.00;100267.04;217851;1287;141679;-92
2024/01/13 11:35:40;;;;;;;8.90;4.70;;;;;;;1.43;100.00;100255.20;218485;1287;139464;-95
2024/01/13 11:40:45;;;;;;;12.10;6.10;;;;;;;1.43;100.00;100234.50;218107;1287;140205;-90
2024/01/13 11:45:49;;;;;;;12.40;5.50;;;;;;;1.42;100.00;100225.15;218377;1287;139763;-92
2024/01/13 11:50:59;;;;;;;15.60;7.30;;;;;;;1.43;100.00;100222.40;217983;1288;141023;-91
2024/01/13 11:56:00;;;;;;;13.40;6.20;;;;;;;1.43;100.00;100212.93;218489;1287;139024;-91
2024/01/13 12:01:04;;;;;;;12.10;5.90;;;;;;;1.41;100.00;100192.02;217878;1288;140672;-89
2024/01/13 12:06:05;;;;;;;15.10;5.90;;;;;;;1.36;100.00;100174.48;218220;1289;139217;-91
2024/01/13 12:11:06;;;;;;;11.10;5.80;;;;;;;1.35;100.00;100158.44;217875;1288;140473;-90
2024/01/13 12:16:08;;;;;;;12.00;5.60;;;;;;;1.34;100.00;100151.52;218285;1288;139762;-90
2024/01/13 12:21:09;;;;;;;14.00;5.80;;;;;;;1.34;100.00;100142.63;217943;1289;139864;-91
2024/01/13 12:26:12;;;;;;;11.60;5.80;;;;;;;1.35;100.00;100132.56;218411;1288;139521;-90
2024/01/13 12:31:12;;;;;;;10.60;4.90;;;;;;;1.34;100.00;100118.67;217728;1288;141117;-91
2024/01/13 12:36:13;;;;;;;12.00;5.60;;;;;;;1.34;100.00;100099.15;218388;1288;139894;-93
2024/01/13 12:41:21;;;;;;;12.10;6.00;;;;;;;1.34;100.00;100078.49;217833;1288;140943;-89
2024/01/13 12:46:21;;;;;;;13.90;6.40;;;;;;;1.36;100.00;100069.27;218257;1288;139911;-90
2024/01/13 12:51:22;;;;;;;13.00;7.00;;;;;;;1.36;100.00;100069.12;217861;1288;139969;-90
2024/01/13 12:56:23;;;;;;;12.30;6.10;;;;;;;1.36;100.00;100068.88;218433;1288;95940;-91
2024/01/13 13:01:33;;;;;;;10.90;6.10;;;;;;;1.36;100.00;100063.30;217825;1288;139987;-90
2024/01/13 13:06:47;;;;;;;;;;;;;;;;;;;;;
2024/01/13 13:11:50;;;;;;;12.00;5.50;;;;;;;1.36;100.00;100053.00;217714;1288;139974;-88
2024/01/13 13:16:54;;;;;;;11.30;5.50;;;;;;;1.36;100.00;100055.33;218469;1288;139301;-88
2024/01/13 13:22:03;;;;;;;11.90;5.40;;;;;;;1.36;100.00;100059.20;217669;1290;140565;-88
2024/01/13 13:27:07;;;;;;;9.40;4.70;;;;;;;1.35;100.00;100047.92;218307;1290;106138;-87
2024/01/13 13:32:11;;;;;;;9.80;4.70;;;;;;;1.34;100.00;100030.23;217708;1289;140050;-92
2024/01/13 13:37:14;;;;;;;10.10;4.90;;;;;;;1.33;100.00;100007.81;218071;1290;139398;-91
2024/01/13 13:42:18;;;;;;;8.80;4.60;;;;;;;1.34;100.00;100001.88;217563;1289;139570;-89
2024/01/13 13:47:19;;;;;;;9.40;4.80;;;;;;;1.33;100.00;99994.17;218252;1288;140008;-89
2024/01/13 13:52:22;;;;;;;11.40;5.70;;;;;;;1.33;100.00;99983.06;217678;1288;139179;-90
2024/01/13 13:57:23;;;;;;;9.70;4.80;;;;;;;1.32;100.00;99969.36;218323;1289;96095;-88
2024/01/13 14:02:24;;;;;;;11.50;5.20;;;;;;;1.33;100.00;99967.83;217860;1288;140380;-89
2024/01/13 14:07:26;;;;;;;12.50;6.10;;;;;;;1.33;100.00;99954.59;218444;1288;139328;-91
2024/01/13 14:12:28;;;;;;;10.70;6.70;;;;;;;1.34;100.00;99949.20;217916;1288;140883;-90
2024/01/13 14:17:36;;;;;;;10.40;5.00;;;;;;;1.33;100.00;99945.06;218293;1290;139524;-89
2024/01/13 14:22:36;;;;;;;9.80;4.90;;;;;;;1.31;100.00;99934.67;217735;1290;139199;-88
2024/01/13 14:27:37;;;;;;;13.40;6.70;;;;;;;1.30;100.00;99931.98;218356;1288;139445;-87
2024/01/13 14:32:38;;;;;;;10.90;5.60;;;;;;;1.29;100.00;99926.94;217914;1288;139795;-91
2024/01/13 14:37:39;;;;;;;10.90;5.60;;;;;;;1.29;100.00;99913.46;218268;1288;139455;-90
2024/01/13 14:42:40;;;;;;;10.80;5.00;;;;;;;1.28;100.00;99906.82;217928;1292;139769;-90
2024/01/13 14:47:40;;;;;;;11.70;6.00;;;;;;;1.27;100.00;99896.34;218423;1287;139115;-88
2024/01/13 14:52:41;;;;;;;9.70;5.50;;;;;;;1.25;100.00;99886.64;217911;1287;139303;-89
2024/01/13 14:57:42;;;;;;;11.30;5.70;;;;;;;1.23;100.00;99879.30;218431;1287;139537;-89
2024/01/13 15:02:44;;;;;;;12.90;6.20;;;;;;;1.23;100.00;99877.35;218084;1287;140640;-91
2024/01/13 15:07:45;;;;;;;11.60;5.90;;;;;;;1.22;100.00;99880.27;218535;1287;139082;-90
2024/01/13 15:12:45;;;;;;;11.60;5.90;;;;;;;1.20;100.00;99875.34;217817;1288;141589;-88
2024/01/13 15:17:47;;;;;;;9.40;5.10;;;;;;;1.21;100.00;99873.48;218328;1289;139804;-88
2024/01/13 15:22:48;;;;;;;11.70;5.80;;;;;;;1.21;100.00;99869.55;217958;1287;139938;-89
2024/01/13 15:27:55;;;;;;;16.80;7.20;;;;;;;1.21;100.00;99864.52;218415;1287;139467;-89
2024/01/13 15:32:56;;;;;;;12.90;8.00;;;;;;;1.21;100.00;99853.52;217939;1287;140025;-90
2024/01/13 15:37:57;;;;;;;11.20;6.20;;;;;;;1.21;100.00;99841.98;218408;1289;138854;-90
2024/01/13 15:42:58;;;;;;;14.80;7.40;;;;;;;1.22;100.00;99840.15;217823;1288;139941;-91
2024/01/13 15:47:59;;;;;;;17.00;7.70;;;;;;;1.21;100.00;99829.35;218354;1288;139840;-90
2024/01/13 15:53:02;;;;;;;12.70;6.90;;;;;;;1.19;100.00;99821.33;217884;1288;141119;-87
2024/01/13 15:58:03;;;;;;;14.90;7.50;;;;;;;1.19;100.00;99810.77;218320;1288;139628;-88
2024/01/13 16:03:04;;;;;;;16.20;8.00;;;;;;;1.18;100.00;99810.74;218048;1288;140404;-89
2024/01/13 16:08:04;;;;;;;13.10;7.50;;;;;;;1.18;100.00;99795.95;218613;1287;139725;-87
2024/01/13 16:13:05;;;;;;;13.20;7.00;;;;;;;1.18;100.00;99782.25;217857;1290;140323;-90
2024/01/13 16:18:06;;;;;;;15.40;7.90;;;;;;;1.17;100.00;99766.64;218326;1290;139609;-89
2024/01/13 16:23:07;;;;;;;13.10;6.80;;;;;;;1.16;100.00;99756.53;217866;1287;140449;-86
2024/01/13 16:28:07;;;;;;;11.80;6.80;;;;;;;1.14;100.00;99748.04;218552;1288;139548;-89
2024/01/13 16:33:09;;;;;;;10.70;5.50;;;;;;;1.11;100.00;99731.67;217985;1287;140079;-88
2024/01/13 16:38:09;;;;;;;12.50;6.70;;;;;;;1.09;100.00;99729.71;218557;1287;139767;-88
2024/01/13 16:43:10;;;;;;;10.50;6.00;;;;;;;1.07;100.00;99729.29;217997;1287;140585;-91
2024/01/13 16:48:11;;;;;;;14.70;7.20;;;;;;;1.06;100.00;99722.83;218389;1287;140182;-89
2024/01/13 16:53:12;;;;;;;14.60;7.40;;;;;;;1.07;100.00;99718.20;217823;1288;139953;-89
2024/01/13 16:58:13;;;;;;;16.50;8.40;;;;;;;1.07;100.00;99716.19;218345;1287;139952;-89
2024/01/13 17:03:17;;;;;;;15.70;8.10;;;;;;;1.09;100.00;99713.94;217911;1288;140705;-89
2024/01/13 17:08:18;;;;;;;15.70;7.70;;;;;;;1.08;100.00;99708.95;218353;1288;139660;-88
2024/01/13 17:13:19;;;;;;;12.50;6.70;;;;;;;1.08;100.00;99711.02;217633;1288;140082;-90
2024/01/13 17:18:22;;;;;;;13.40;7.10;;;;;;;1.07;100.00;99711.77;218205;1288;140084;-90
2024/01/13 17:23:23;;;;;;;12.70;6.40;;;;;;;1.05;100.00;99709.86;217771;1288;140399;-92
2024/01/13 17:28:29;;;;;;;15.30;8.00;;;;;;;1.03;100.00;99703.49;218223;1289;139857;-90
2024/01/13 17:33:30;;;;;;;14.20;7.60;;;;;;;1.02;100.00;99695.57;217848;1288;140182;-87
2024/01/13 17:38:30;;;;;;;13.70;7.30;;;;;;;1.01;100.00;99682.98;218740;1287;96282;-90
2024/01/13 17:43:31;;;;;;;13.10;6.50;;;;;;;1.01;100.00;99682.36;217762;1288;140103;-90
2024/01/13 17:48:32;;;;;;;17.10;8.40;;;;;;;0.99;100.00;99669.27;218289;1288;139916;-88
2024/01/13 17:53:33;;;;;;;15.60;8.30;;;;;;;0.97;100.00;99654.75;217674;1288;139721;-91
2024/01/13 17:58:34;;;;;;;12.80;6.60;;;;;;;0.98;100.00;99657.27;218410;1288;139384;-86
2024/01/13 18:03:37;;;;;;;13.70;7.00;;;;;;;0.98;100.00;99647.70;217647;1288;139916;-88
2024/01/13 18:08:38;;;;;;;16.90;7.90;;;;;;;0.99;100.00;99638.78;218736;1287;96117;-88
2024/01/13 18:13:38;;;;;;;16.70;7.30;;;;;;;0.99;100.00;99628.97;217958;1288;139814;-87
2024/01/13 18:18:39;;;;;;;14.50;7.20;;;;;;;0.99;100.00;99624.08;218589;1288;139638;-88
2024/01/13 18:23:41;;;;;;;13.80;6.80;;;;;;;0.98;100.00;99622.21;217889;1288;140121;-89
2024/01/13 18:28:42;;;;;;;14.40;8.30;;;;;;;0.98;100.00;99620.48;218583;1288;139231;-88
2024/01/13 18:33:43;;;;;;;17.40;9.30;;;;;;;0.98;100.00;99613.60;217993;1288;140849;-87
2024/01/13 18:38:46;;;;;;;13.90;7.60;;;;;;;0.99;100.00;99600.09;218657;1292;95959;-89
2024/01/13 18:43:47;;;;;;;11.60;6.20;;;;;;;0.99;100.00;99585.23;217916;1288;140193;-89
2024/01/13 18:48:48;;;;;;;12.40;6.40;;;;;;;0.98;100.00;99580.77;218553;1288;138918;-88
2024/01/13 18:53:49;;;;;;;12.30;7.00;;;;;;;0.98;100.00;99567.77;217919;1292;139928;-90
2024/01/13 18:58:49;;;;;;;11.30;6.20;;;;;;;0.98;100.00;99560.98;218520;1288;139198;-88
2024/01/13 19:03:50;;;;;;;13.40;7.40;;;;;;;0.98;100.00;99552.54;217867;1288;139753;-89
2024/01/13 19:08:52;;;;;;;11.40;6.20;;;;;;;0.99;100.00;99547.39;218487;1288;96981;-89
2024/01/13 19:13:54;;;;;;;10.60;5.70;;;;;;;1.01;100.00;99544.89;217577;1292;139881;-89
2024/01/13 19:19:12;;;;;;;10.50;5.70;;;;;;;1.05;100.00;99536.91;214908;1285;635835;-90
2024/01/13 19:24:13;;;;;;;12.80;6.80;;;;;;;1.04;100.00;99531.91;214524;1286;138400;-88
2024/01/13 19:29:14;;;;;;;13.60;6.90;;;;;;;1.07;100.00;99531.02;214598;1289;264485;-88
2024/01/13 19:34:15;;;;;;;13.20;6.60;;;;;;;1.08;100.00;99515.27;214811;1282;138234;-88
2024/01/13 19:39:16;;;;;;;13.60;6.10;;;;;;;1.09;100.00;99505.70;215531;1282;95270;-88
2024/01/13 19:44:17;;;;;;;11.20;6.60;;;;;;;1.11;100.00;99498.72;214937;1286;138617;-84
2024/01/13 19:49:17;;;;;;;11.90;6.70;;;;;;;1.13;100.00;99488.40;215236;1286;138093;-87
2024/01/13 19:54:17;;;;;;;13.10;7.20;;;;;;;1.16;100.00;99487.57;214966;1286;138395;-91
2024/01/13 19:59:18;;;;;;;13.10;7.40;;;;;;;1.17;100.00;99476.94;215343;1282;137788;-88
2024/01/13 20:04:19;;;;;;;13.60;6.40;;;;;;;1.19;100.00;99472.73;214931;1285;138518;-88
2024/01/13 20:09:19;;;;;;;11.30;6.30;;;;;;;1.20;100.00;99469.15;215432;1286;95617;-88
2024/01/13 20:14:20;;;;;;;12.00;6.00;;;;;;;1.20;100.00;99464.18;215102;1285;138857;-88
2024/01/13 20:19:21;;;;;;;10.70;5.60;;;;;;;1.21;100.00;99448.58;215364;1287;137714;-88
2024/01/13 20:24:22;;;;;;;12.70;5.70;;;;;;;1.23;100.00;99439.40;214248;1283;139101;-86
2024/01/13 20:29:23;;;;;;;10.80;6.10;;;;;;;1.24;100.00;99431.95;215086;1288;138085;-89
2024/01/13 20:34:23;;;;;;;10.40;5.60;;;;;;;1.27;100.00;99422.98;214647;1284;138611;-91
2024/01/13 20:39:24;;;;;;;12.30;6.10;;;;;;;1.30;100.00;99417.45;214898;1287;95314;-88
2024/01/13 20:44:25;;;;;;;10.70;5.90;;;;;;;1.33;100.00;99411.64;214642;1288;138497;-91
2024/01/13 20:49:25;;;;;;;13.70;6.50;;;;;;;1.34;100.00;99407.25;214837;1288;138203;-92
2024/01/13 20:54:26;;;;;;;14.50;5.90;;;;;;;1.34;100.00;99397.03;214755;1285;138966;-90
2024/01/13 20:59:26;;;;;;;12.60;6.60;;;;;;;1.34;100.00;99388.83;215315;1288;138344;-89
2024/01/13 21:04:27;;;;;;;13.80;7.00;;;;;;;1.33;100.00;99387.55;214448;1288;138407;-91
2024/01/13 21:09:28;;;;;;;13.10;6.70;;;;;;;1.34;100.00;99377.11;215296;1285;105091;-90
2024/01/13 21:14:28;;;;;;;13.20;7.20;;;;;;;1.36;100.00;99376.79;214818;1288;139508;-92
2024/01/13 21:19:29;;;;;;;11.40;6.50;;;;;;;1.38;100.00;99374.53;215214;1283;138332;-89
2024/01/13 21:24:30;;;;;;;12.20;6.40;;;;;;;1.38;100.00;99370.43;214877;1288;138739;-89
2024/01/13 21:29:32;;;;;;;14.70;7.30;;;;;;;1.41;100.00;99366.89;215280;1288;137797;-89
2024/01/13 21:34:32;;;;;;;13.00;7.30;;;;;;;1.43;100.00;99368.80;214742;1288;139198;-91
2024/01/13 21:39:33;;;;;;;13.60;7.50;;;;;;;1.41;100.00;99359.14;214897;1282;138509;-91
2024/01/13 21:44:33;;;;;;;14.80;7.20;;;;;;;1.39;100.00;99350.73;214786;1283;140124;-90
2024/01/13 21:49:34;;;;;;;13.40;7.60;;;;;;;1.40;100.00;99348.86;215286;1283;138952;-90
2024/01/13 21:54:34;;;;;;;16.20;8.50;;;;;;;1.40;100.00;99338.14;214470;1285;138805;-92
2024/01/13 21:59:35;;;;;;;14.10;8.30;;;;;;;1.43;100.00;99337.44;215245;1285;138585;-91
2024/01/13 22:04:37;;;;;;;14.40;7.40;;;;;;;1.44;100.00;99326.95;214633;1286;138528;-92
2024/01/13 22:09:40;;;;;;;16.20;8.10;;;;;;;1.46;100.00;99330.27;215210;1283;138377;-92
2024/01/13 22:14:41;;;;;;;17.10;8.30;;;;;;;1.48;100.00;99326.66;214676;1286;138683;-93
2024/01/13 22:19:41;;;;;;;17.10;8.50;;;;;;;1.48;100.00;99324.88;215018;1293;138528;-90
2024/01/13 22:24:42;;;;;;;13.90;8.00;;;;;;;1.49;100.00;99309.65;214296;1286;139749;-90
2024/01/13 22:29:42;;;;;;;16.20;7.60;;;;;;;1.49;100.00;99312.60;215097;1284;138619;-88
2024/01/13 22:34:43;;;;;;;13.10;7.20;;;;;;;1.49;100.00;99298.58;214817;1283;140055;-89
2024/01/13 22:39:44;;;;;;;14.50;7.80;;;;;;;1.49;100.00;99292.54;215297;1285;138103;-91
2024/01/13 22:44:45;;;;;;;12.50;7.10;;;;;;;1.49;100.00;99295.33;214746;1286;138993;-91
2024/01/13 22:49:45;;;;;;;14.40;7.20;;;;;;;1.49;100.00;99292.44;214984;1288;138308;-92